createdAt,value
2019-02-19T00:04:42.671Z,19.00
2019-02-19T00:29:28.747Z,20.20
2019-02-19T00:34:26.223Z,20.00
2019-02-19T00:36:55.080Z,20.20
2019-02-19T00:41:52.709Z,19.80
2019-02-19T00:51:48.122Z,20.00
2019-02-19T01:11:37.416Z,23.90
2019-02-19T01:16:34.872Z,21.20
2019-02-19T01:19:03.830Z,20.20
2019-02-19T01:21:32.368Z,20.30
2019-02-19T01:24:00.944Z,19.60
2019-02-19T01:26:29.495Z,18.60
2019-02-19T01:28:58.409Z,18.50
2019-02-19T01:31:27.060Z,17.30
2019-02-19T01:33:55.634Z,17.50
2019-02-19T01:36:24.308Z,15.70
2019-02-19T01:38:53.161Z,15.50
2019-02-19T01:41:21.993Z,15.70
2019-02-19T01:46:19.491Z,19.60
2019-02-19T01:48:48.352Z,17.00
2019-02-19T01:51:17.168Z,17.50
2019-02-19T01:56:17.504Z,18.40
2019-02-19T02:03:43.656Z,19.10
2019-02-19T02:21:04.243Z,20.70
2019-02-19T02:26:01.691Z,20.80
2019-02-19T02:28:30.639Z,21.00
2019-02-19T02:30:59.504Z,21.10
2019-02-19T02:33:28.411Z,21.10
2019-02-19T02:35:57.269Z,21.10
2019-02-19T02:38:26.155Z,21.20
2019-02-19T02:43:24.090Z,21.60
2019-02-19T02:50:51.282Z,21.50
2019-02-19T02:53:20.164Z,21.50
2019-02-19T02:58:17.584Z,21.60
2019-02-19T03:00:46.458Z,21.80
2019-02-19T03:03:15.497Z,22.30
2019-02-19T03:05:50.059Z,22.00
2019-02-19T03:08:18.971Z,24.00
2019-02-19T03:10:47.839Z,25.50
2019-02-19T03:13:16.717Z,22.60
2019-02-19T03:15:45.516Z,22.50
2019-02-19T03:18:14.414Z,22.90
2019-02-19T03:20:43.361Z,23.40
2019-02-19T03:23:12.259Z,23.30
2019-02-19T03:25:41.136Z,23.00
2019-02-19T03:28:10.156Z,23.90
2019-02-19T03:30:39.349Z,22.50
2019-02-19T03:33:08.233Z,24.20
2019-02-19T03:35:37.208Z,24.60
2019-02-19T03:38:06.005Z,25.00
2019-02-19T03:40:35.316Z,25.50
2019-02-19T03:43:04.244Z,25.40
2019-02-19T03:45:33.156Z,25.80
2019-02-19T03:48:02.009Z,26.10
2019-02-19T03:50:37.320Z,26.50
2019-02-19T03:53:06.197Z,27.40
2019-02-19T03:55:35.037Z,26.70
2019-02-19T03:58:03.952Z,28.00
2019-02-19T04:00:33.067Z,28.10
2019-02-19T04:03:01.885Z,27.40
2019-02-19T04:05:30.939Z,27.30
2019-02-19T04:07:59.831Z,28.50
2019-02-19T04:10:28.788Z,28.10
2019-02-19T04:12:57.800Z,28.10
2019-02-19T04:20:23.760Z,28.50
2019-02-19T04:30:18.167Z,29.40
2019-02-19T04:32:47.056Z,29.50
2019-02-19T04:35:15.920Z,29.40
2019-02-19T04:45:10.608Z,29.80
2019-02-19T04:52:37.169Z,30.00
2019-02-19T04:55:06.736Z,30.10
2019-02-19T05:00:06.154Z,30.40
2019-02-19T05:10:01.111Z,31.40
2019-02-19T05:12:29.966Z,30.80
2019-02-19T05:17:27.328Z,30.80
2019-02-19T05:19:56.450Z,30.70
2019-02-19T05:22:25.245Z,31.40
2019-02-19T05:24:54.269Z,31.40
2019-02-19T05:27:23.190Z,30.90
2019-02-19T05:29:52.075Z,32.00
2019-02-19T05:32:20.937Z,32.10
2019-02-19T05:34:49.828Z,32.10
2019-02-19T05:37:18.722Z,31.70
2019-02-19T05:39:47.602Z,32.30
2019-02-19T05:42:16.621Z,32.20
2019-02-19T05:44:45.587Z,31.50
2019-02-19T05:47:14.490Z,31.60
2019-02-19T05:49:43.460Z,31.60
2019-02-19T05:52:12.362Z,32.10
2019-02-19T05:54:41.290Z,31.40
2019-02-19T05:57:10.228Z,31.30
2019-02-19T06:02:07.840Z,31.20
2019-02-19T06:24:25.231Z,32.10
2019-02-19T06:29:22.657Z,32.00
2019-02-19T06:31:51.544Z,32.10
2019-02-19T06:36:48.823Z,32.20
2019-02-19T06:39:17.631Z,32.30
2019-02-19T06:44:14.969Z,32.20
2019-02-19T06:46:43.839Z,32.20
2019-02-19T06:49:12.833Z,32.80
2019-02-19T06:51:41.787Z,32.30
2019-02-19T06:54:10.887Z,32.10
2019-02-19T06:56:39.826Z,32.40
2019-02-19T06:59:08.815Z,33.30
2019-02-19T07:01:41.921Z,32.20
2019-02-19T07:04:12.547Z,33.00
2019-02-19T07:09:10.068Z,32.50
2019-02-19T07:11:39.075Z,32.80
2019-02-19T07:14:07.914Z,32.50
2019-02-19T07:16:36.786Z,32.20
2019-02-19T07:19:05.799Z,32.20
2019-02-19T07:21:34.782Z,32.10
2019-02-19T07:24:04.631Z,32.10
2019-02-19T07:26:33.803Z,32.30
2019-02-19T07:43:54.254Z,32.10
2019-02-19T07:46:23.699Z,32.30
2019-02-19T07:48:52.597Z,34.60
2019-02-19T07:51:21.417Z,32.50
2019-02-19T07:56:18.854Z,32.90
2019-02-19T07:58:47.725Z,32.80
2019-02-19T08:01:16.608Z,33.30
2019-02-19T08:03:45.534Z,32.30
2019-02-19T08:06:14.452Z,32.30
2019-02-19T08:08:43.560Z,31.90
2019-02-19T08:13:41.129Z,32.90
2019-02-19T08:16:10.024Z,32.60
2019-02-19T08:18:39.004Z,33.00
2019-02-19T08:21:07.922Z,32.80
2019-02-19T08:23:36.937Z,32.90
2019-02-19T08:26:05.947Z,32.80
2019-02-19T08:28:34.960Z,33.00
2019-02-19T08:33:33.859Z,33.10
2019-02-19T08:36:02.824Z,31.80
2019-02-19T08:38:31.616Z,32.10
2019-02-19T08:41:00.511Z,31.70
2019-02-19T08:43:29.369Z,31.30
2019-02-19T08:45:58.258Z,30.50
2019-02-19T08:48:27.303Z,30.00
2019-02-19T08:50:56.203Z,30.70
2019-02-19T08:53:25.347Z,29.60
2019-02-19T08:55:54.293Z,29.00
2019-02-19T08:58:23.189Z,29.00
2019-02-19T09:00:52.214Z,28.70
2019-02-19T09:03:21.216Z,28.50
2019-02-19T09:18:15.680Z,28.00
2019-02-19T09:23:13.093Z,27.70
2019-02-19T09:25:41.961Z,27.70
2019-02-19T09:28:10.786Z,27.80
2019-02-19T09:30:39.717Z,27.80
2019-02-19T09:33:08.765Z,27.50
2019-02-19T09:35:37.677Z,27.40
2019-02-19T09:38:06.908Z,27.40
2019-02-19T09:40:35.931Z,27.20
2019-02-19T09:43:05.055Z,27.00
2019-02-19T09:57:58.465Z,25.70
2019-02-19T10:00:27.354Z,25.90
2019-02-19T10:10:22.390Z,25.70
2019-02-19T10:17:48.264Z,25.70
2019-02-19T10:35:15.135Z,23.90
2019-02-19T11:22:32.499Z,22.90
2019-02-19T11:25:01.351Z,23.00
2019-02-19T11:29:58.830Z,22.80
2019-02-19T11:34:57.718Z,22.80
2019-02-19T11:47:26.494Z,21.80
2019-02-19T11:52:18.044Z,21.70
2019-02-19T11:57:15.675Z,21.80
2019-02-19T12:07:10.828Z,23.60
2019-02-19T12:09:39.501Z,23.40
2019-02-19T12:14:36.587Z,21.60
2019-02-19T12:22:01.639Z,19.30
2019-02-19T12:26:58.485Z,18.20
2019-02-19T12:31:56.466Z,18.40
2019-02-19T12:34:25.060Z,18.40
2019-02-19T12:39:21.940Z,17.50
2019-02-19T12:41:50.515Z,17.70
2019-02-19T12:46:47.329Z,17.70
2019-02-19T12:49:16.545Z,17.50
2019-02-19T12:56:43.740Z,17.40
2019-02-19T12:59:15.734Z,17.10
2019-02-19T13:01:44.523Z,15.90
2019-02-19T13:04:13.104Z,15.60
2019-02-19T13:06:41.988Z,15.00
2019-02-19T13:09:10.930Z,15.50
2019-02-19T13:11:39.536Z,15.60
2019-02-19T13:14:08.170Z,15.90
2019-02-19T13:16:36.840Z,16.10
2019-02-19T13:19:05.425Z,18.80
2019-02-19T13:21:34.018Z,17.10
2019-02-19T13:24:02.631Z,17.90
2019-02-19T13:26:31.370Z,17.90
2019-02-19T13:31:28.429Z,19.90
2019-02-19T13:33:57.292Z,20.10
2019-02-19T13:36:26.176Z,20.20
2019-02-19T13:38:55.050Z,19.90
2019-02-19T13:41:23.984Z,20.00
2019-02-19T13:43:52.870Z,19.60
2019-02-19T13:46:21.812Z,19.70
2019-02-19T13:48:50.430Z,19.80
2019-02-19T13:51:19.220Z,19.90
2019-02-19T13:53:49.761Z,20.30
2019-02-19T13:56:18.712Z,20.00
2019-02-19T14:01:16.478Z,20.20
2019-02-19T14:32:19.537Z,19.90
2019-02-19T14:45:45.585Z,19.70
2019-02-19T14:48:32.122Z,18.90
2019-02-19T14:51:02.292Z,18.90
2019-02-19T14:53:44.752Z,19.20
2019-02-19T14:56:30.077Z,19.30
2019-02-19T14:59:12.436Z,19.20
2019-02-19T15:01:54.673Z,19.10
2019-02-19T15:04:25.002Z,19.20
2019-02-19T15:07:01.253Z,19.30
2019-02-19T15:09:37.286Z,19.30
2019-02-19T15:12:14.604Z,19.60
2019-02-19T15:14:44.916Z,19.80
2019-02-19T15:17:24.674Z,20.00
2019-02-19T15:33:32.694Z,21.90
2019-02-19T15:36:12.312Z,22.20
2019-02-19T15:38:43.061Z,22.40
2019-02-19T15:41:20.320Z,23.20
2019-02-19T15:43:53.438Z,23.70
2019-02-19T15:46:30.090Z,24.00
2019-02-19T15:49:01.040Z,24.40
2019-02-19T15:51:48.369Z,24.20
2019-02-19T15:54:34.224Z,24.30
2019-02-19T15:57:05.000Z,24.80
2019-02-19T15:59:37.982Z,26.10
2019-02-19T16:04:42.084Z,26.30
2019-02-19T16:07:25.038Z,26.30
2019-02-19T16:18:28.774Z,26.20
2019-02-19T16:20:59.428Z,26.20
2019-02-19T16:23:30.171Z,26.80
2019-02-19T16:28:34.255Z,27.10
2019-02-19T16:31:07.357Z,27.00
2019-02-19T16:33:43.555Z,27.60
2019-02-19T16:36:30.146Z,30.60
2019-02-19T16:39:36.152Z,27.50
2019-02-19T16:42:09.958Z,27.20
2019-02-19T16:44:46.885Z,30.50
2019-02-19T16:47:17.405Z,27.30
2019-02-19T16:49:48.105Z,27.20
2019-02-19T16:52:27.619Z,26.90
2019-02-19T16:54:58.336Z,27.20
2019-02-19T16:57:31.615Z,27.30
2019-02-19T17:00:07.859Z,27.00
2019-02-19T17:02:50.362Z,26.20
2019-02-19T17:05:21.104Z,27.50
2019-02-19T17:07:52.905Z,26.60
2019-02-19T17:10:23.450Z,27.40
2019-02-19T17:12:53.942Z,26.20
2019-02-19T17:15:40.863Z,26.30
2019-02-19T17:18:27.753Z,26.10
2019-02-19T17:23:46.014Z,25.60
2019-02-19T17:26:16.801Z,26.60
2019-02-19T17:28:50.145Z,26.00
2019-02-19T17:31:32.808Z,26.70
2019-02-19T17:34:09.409Z,26.50
2019-02-19T17:36:56.301Z,26.60
2019-02-19T17:39:29.766Z,26.40
2019-02-19T17:42:03.199Z,26.30
2019-02-19T17:44:34.226Z,26.40
2019-02-19T17:47:20.058Z,26.80
2019-02-19T17:50:05.374Z,26.30
2019-02-19T17:52:51.050Z,25.60
2019-02-19T17:55:27.318Z,26.40
2019-02-19T17:58:09.718Z,25.30
2019-02-19T18:00:45.769Z,25.80
2019-02-19T18:03:32.406Z,25.20
2019-02-19T18:06:06.155Z,25.70
2019-02-19T18:08:36.722Z,25.60
2019-02-19T18:11:23.342Z,25.60
2019-02-19T18:14:02.737Z,25.00
2019-02-19T18:16:51.268Z,25.50
2019-02-19T18:19:20.116Z,25.30
2019-02-19T18:21:48.998Z,24.70
2019-02-19T18:24:17.861Z,25.20
2019-02-19T18:26:46.784Z,25.40
2019-02-19T18:29:16.039Z,25.50
2019-02-19T18:34:13.660Z,24.80
2019-02-19T18:36:42.624Z,25.10
2019-02-19T18:39:11.571Z,25.50
2019-02-19T18:41:40.529Z,25.50
2019-02-19T18:44:09.482Z,25.00
2019-02-19T18:46:38.574Z,25.40
2019-02-19T18:49:07.606Z,25.60
2019-02-19T18:51:36.826Z,25.50
2019-02-19T18:54:05.696Z,25.10
2019-02-19T18:56:34.680Z,25.40
2019-02-19T18:59:03.550Z,25.40
2019-02-19T19:01:32.409Z,25.50
2019-02-19T19:04:01.344Z,24.90
2019-02-19T19:06:30.228Z,25.10
2019-02-19T19:08:59.225Z,25.20
2019-02-19T19:11:28.114Z,24.70
2019-02-19T19:13:56.965Z,24.70
2019-02-19T19:16:25.972Z,23.80
2019-02-19T19:18:54.837Z,25.10
2019-02-19T19:21:23.887Z,25.00
2019-02-19T19:23:52.907Z,24.50
2019-02-19T19:26:21.858Z,25.00
2019-02-19T19:28:50.899Z,25.00
2019-02-19T19:31:19.915Z,25.00
2019-02-19T19:33:49.026Z,24.50
2019-02-19T19:36:18.160Z,24.60
2019-02-19T19:38:47.067Z,25.40
2019-02-19T19:41:15.973Z,25.20
2019-02-19T19:43:44.904Z,25.10
2019-02-19T19:46:13.786Z,25.60
2019-02-19T19:48:42.644Z,25.70
2019-02-19T19:51:17.254Z,25.50
2019-02-19T19:53:42.624Z,25.20
2019-02-19T19:56:11.611Z,26.00
2019-02-19T19:58:40.946Z,25.80
2019-02-19T20:01:10.091Z,25.90
2019-02-19T20:03:38.984Z,26.00
2019-02-19T20:06:08.093Z,26.20
2019-02-19T20:08:37.227Z,26.10
2019-02-19T20:11:06.412Z,25.70
2019-02-19T20:13:35.677Z,25.80
2019-02-19T20:16:04.748Z,26.20
2019-02-19T20:18:39.050Z,25.70
2019-02-19T20:21:04.369Z,26.10
2019-02-19T20:23:33.348Z,25.60
2019-02-19T20:26:02.592Z,25.60
2019-02-19T20:28:31.668Z,26.20
2019-02-19T20:31:00.639Z,25.60
2019-02-19T20:33:30.531Z,25.70
2019-02-19T20:35:59.493Z,25.70
2019-02-19T20:38:28.375Z,25.60
2019-02-19T20:40:57.344Z,25.90
2019-02-19T20:43:26.323Z,28.00
2019-02-19T20:45:55.409Z,26.60
2019-02-19T20:48:24.403Z,26.40
2019-02-19T20:50:53.292Z,26.30
2019-02-19T20:53:22.502Z,26.00
2019-02-19T20:55:51.395Z,25.80
2019-02-19T20:58:20.255Z,26.40
2019-02-19T21:00:49.704Z,25.90
2019-02-19T21:03:18.703Z,25.90
2019-02-19T21:05:47.642Z,26.30
2019-02-19T21:08:16.462Z,26.10
2019-02-19T21:10:45.380Z,25.80
2019-02-19T21:13:14.222Z,27.00
2019-02-19T21:15:43.250Z,26.30
2019-02-19T21:18:13.724Z,25.80
2019-02-19T21:20:43.002Z,26.30
2019-02-19T21:23:11.981Z,28.10
2019-02-19T21:25:40.939Z,25.80
2019-02-19T21:28:09.858Z,26.40
2019-02-19T21:30:38.737Z,25.80
2019-02-19T21:33:07.765Z,25.80
2019-02-19T21:35:36.926Z,26.30
2019-02-19T21:38:06.084Z,26.30
2019-02-19T21:40:34.991Z,25.90
2019-02-19T21:43:03.915Z,25.80
2019-02-19T21:45:32.843Z,26.50
2019-02-19T21:48:01.818Z,26.00
2019-02-19T21:50:30.705Z,26.30
2019-02-19T21:52:59.647Z,26.40
2019-02-19T21:55:28.564Z,26.70
2019-02-19T21:57:57.389Z,27.30
2019-02-19T22:00:28.470Z,26.90
2019-02-19T22:02:57.328Z,27.00
2019-02-19T22:05:26.185Z,27.60
2019-02-19T22:07:55.495Z,27.00
2019-02-19T22:10:24.493Z,27.10
2019-02-19T22:12:53.458Z,27.20
2019-02-19T22:15:22.418Z,27.70
2019-02-19T22:17:51.294Z,27.70
2019-02-19T22:20:37.783Z,27.70
2019-02-19T22:23:07.074Z,27.10
2019-02-19T22:25:36.020Z,27.00
2019-02-19T22:28:05.992Z,27.20
2019-02-19T22:30:35.295Z,27.10
2019-02-19T22:33:04.278Z,27.10
2019-02-19T22:35:33.432Z,27.30
2019-02-19T22:38:03.159Z,27.10
2019-02-19T22:40:32.301Z,27.20
2019-02-19T22:43:01.306Z,27.30
2019-02-19T22:47:58.710Z,27.20
2019-02-19T22:50:27.603Z,27.10
2019-02-19T22:52:56.478Z,27.00
2019-02-19T22:55:27.140Z,27.60
2019-02-19T22:57:56.270Z,27.60
2019-02-19T23:00:47.862Z,27.50
2019-02-19T23:03:18.489Z,26.80
2019-02-19T23:05:47.471Z,26.70
2019-02-19T23:08:16.339Z,26.70
2019-02-19T23:10:45.257Z,27.70
2019-02-19T23:13:14.623Z,26.70
2019-02-19T23:15:43.734Z,26.80
2019-02-19T23:18:12.862Z,26.70
2019-02-19T23:20:41.841Z,26.60
2019-02-19T23:23:10.706Z,26.50
2019-02-19T23:25:39.656Z,26.60
2019-02-19T23:28:08.568Z,27.60
2019-02-19T23:30:37.471Z,26.30
2019-02-19T23:33:06.489Z,26.20
2019-02-19T23:35:47.220Z,26.00
2019-02-19T23:38:16.194Z,26.00
2019-02-19T23:40:45.096Z,26.30
2019-02-19T23:43:14.062Z,26.60
2019-02-19T23:45:43.008Z,26.30
2019-02-19T23:48:11.884Z,26.30
2019-02-19T23:50:40.995Z,26.70
2019-02-19T23:53:10.811Z,26.40
2019-02-19T23:58:33.313Z,25.80
